sensor_id;sensor_type;location;lat;lon;timestamp;P1;durP1;ratioP1;P2;durP2;ratioP2
77146;SDS011;66121;52.584;9.694;2023-04-25T00:01:56;13.77;;;4.90;;
77146;SDS011;66121;52.584;9.694;2023-04-25T00:04:22;13.32;;;5.90;;
77146;SDS011;66121;52.584;9.694;2023-04-25T00:06:47;11.53;;;4.83;;
77146;SDS011;66121;52.584;9.694;2023-04-25T00:09:13;15.52;;;6.43;;
77146;SDS011;66121;52.584;9.694;2023-04-25T00:11:39;13.07;;;5.80;;
77146;SDS011;66121;52.584;9.694;2023-04-25T00:14:05;17.73;;;5.00;;
77146;SDS011;66121;52.584;9.694;2023-04-25T00:16:31;10.75;;;4.82;;
77146;SDS011;66121;52.584;9.694;2023-04-25T00:18:59;11.55;;;5.32;;
77146;SDS011;66121;52.584;9.694;2023-04-25T00:21:24;15.23;;;5.68;;
77146;SDS011;66121;52.584;9.694;2023-04-25T00:23:52;13.55;;;5.25;;
77146;SDS011;66121;52.584;9.694;2023-04-25T00:26:17;14.05;;;5.88;;
77146;SDS011;66121;52.584;9.694;2023-04-25T00:28:43;13.45;;;5.60;;
77146;SDS011;66121;52.584;9.694;2023-04-25T00:31:08;12.70;;;5.13;;
77146;SDS011;66121;52.584;9.694;2023-04-25T00:33:33;12.93;;;5.53;;
77146;SDS011;66121;52.584;9.694;2023-04-25T00:35:59;10.70;;;5.22;;
77146;SDS011;66121;52.584;9.694;2023-04-25T00:38:24;13.68;;;5.30;;
77146;SDS011;66121;52.584;9.694;2023-04-25T00:40:49;13.18;;;5.25;;
77146;SDS011;66121;52.584;9.694;2023-04-25T00:43:15;14.32;;;4.72;;
77146;SDS011;66121;52.584;9.694;2023-04-25T00:45:40;20.75;;;5.63;;
77146;SDS011;66121;52.584;9.694;2023-04-25T00:48:07;12.48;;;5.68;;
77146;SDS011;66121;52.584;9.694;2023-04-25T00:50:33;12.50;;;5.53;;
77146;SDS011;66121;52.584;9.694;2023-04-25T00:53:00;12.57;;;4.93;;
77146;SDS011;66121;52.584;9.694;2023-04-25T00:55:26;13.57;;;5.13;;
77146;SDS011;66121;52.584;9.694;2023-04-25T00:57:52;12.15;;;4.88;;
77146;SDS011;66121;52.584;9.694;2023-04-25T01:00:17;13.87;;;5.57;;
77146;SDS011;66121;52.584;9.694;2023-04-25T01:02:43;15.10;;;6.00;;
77146;SDS011;66121;52.584;9.694;2023-04-25T01:05:09;13.77;;;5.43;;
77146;SDS011;66121;52.584;9.694;2023-04-25T01:07:35;12.70;;;5.07;;
77146;SDS011;66121;52.584;9.694;2023-04-25T01:10:00;12.68;;;5.65;;
77146;SDS011;66121;52.584;9.694;2023-04-25T01:12:26;16.73;;;6.05;;
77146;SDS011;66121;52.584;9.694;2023-04-25T01:14:51;16.35;;;6.22;;
77146;SDS011;66121;52.584;9.694;2023-04-25T01:17:18;12.88;;;4.97;;
77146;SDS011;66121;52.584;9.694;2023-04-25T01:19:43;13.18;;;5.72;;
77146;SDS011;66121;52.584;9.694;2023-04-25T01:22:11;14.13;;;6.18;;
77146;SDS011;66121;52.584;9.694;2023-04-25T01:24:36;14.98;;;5.75;;
77146;SDS011;66121;52.584;9.694;2023-04-25T01:27:02;11.43;;;5.43;;
77146;SDS011;66121;52.584;9.694;2023-04-25T01:29:27;17.15;;;5.30;;
77146;SDS011;66121;52.584;9.694;2023-04-25T01:31:53;14.55;;;5.30;;
77146;SDS011;66121;52.584;9.694;2023-04-25T01:34:19;13.98;;;5.20;;
77146;SDS011;66121;52.584;9.694;2023-04-25T01:36:44;15.90;;;6.05;;
77146;SDS011;66121;52.584;9.694;2023-04-25T01:39:10;17.10;;;5.78;;
77146;SDS011;66121;52.584;9.694;2023-04-25T01:41:36;16.35;;;6.55;;
77146;SDS011;66121;52.584;9.694;2023-04-25T01:44:01;18.35;;;6.47;;
77146;SDS011;66121;52.584;9.694;2023-04-25T01:46:27;16.23;;;6.63;;
77146;SDS011;66121;52.584;9.694;2023-04-25T01:48:53;17.42;;;7.20;;
77146;SDS011;66121;52.584;9.694;2023-04-25T01:51:18;15.80;;;6.33;;
77146;SDS011;66121;52.584;9.694;2023-04-25T01:53:44;17.88;;;6.40;;
77146;SDS011;66121;52.584;9.694;2023-04-25T01:56:09;18.05;;;6.90;;
77146;SDS011;66121;52.584;9.694;2023-04-25T01:58:35;17.40;;;5.70;;
77146;SDS011;66121;52.584;9.694;2023-04-25T02:01:00;13.77;;;6.88;;
77146;SDS011;66121;52.584;9.694;2023-04-25T02:03:25;17.02;;;5.95;;
77146;SDS011;66121;52.584;9.694;2023-04-25T02:05:51;14.87;;;4.90;;
77146;SDS011;66121;52.584;9.694;2023-04-25T02:08:16;11.37;;;5.57;;
77146;SDS011;66121;52.584;9.694;2023-04-25T02:10:42;11.32;;;5.28;;
77146;SDS011;66121;52.584;9.694;2023-04-25T02:13:08;15.80;;;5.78;;
77146;SDS011;66121;52.584;9.694;2023-04-25T02:15:33;12.98;;;4.95;;
77146;SDS011;66121;52.584;9.694;2023-04-25T02:17:59;14.27;;;4.97;;
77146;SDS011;66121;52.584;9.694;2023-04-25T02:20:25;16.02;;;4.88;;
77146;SDS011;66121;52.584;9.694;2023-04-25T02:22:51;18.30;;;4.82;;
77146;SDS011;66121;52.584;9.694;2023-04-25T02:25:17;20.45;;;4.30;;
77146;SDS011;66121;52.584;9.694;2023-04-25T02:27:44;14.23;;;4.70;;
77146;SDS011;66121;52.584;9.694;2023-04-25T02:30:10;14.75;;;4.10;;
77146;SDS011;66121;52.584;9.694;2023-04-25T02:32:36;17.45;;;4.88;;
77146;SDS011;66121;52.584;9.694;2023-04-25T02:35:01;9.73;;;4.50;;
77146;SDS011;66121;52.584;9.694;2023-04-25T02:37:31;15.43;;;5.20;;
77146;SDS011;66121;52.584;9.694;2023-04-25T02:39:56;15.60;;;4.53;;
77146;SDS011;66121;52.584;9.694;2023-04-25T02:42:21;18.33;;;4.95;;
77146;SDS011;66121;52.584;9.694;2023-04-25T02:44:47;14.82;;;4.70;;
77146;SDS011;66121;52.584;9.694;2023-04-25T02:47:12;16.20;;;4.47;;
77146;SDS011;66121;52.584;9.694;2023-04-25T02:49:37;19.63;;;5.20;;
77146;SDS011;66121;52.584;9.694;2023-04-25T02:52:02;18.50;;;5.40;;
77146;SDS011;66121;52.584;9.694;2023-04-25T02:54:28;12.63;;;4.20;;
77146;SDS011;66121;52.584;9.694;2023-04-25T02:56:53;19.80;;;4.03;;
77146;SDS011;66121;52.584;9.694;2023-04-25T02:59:18;19.40;;;4.63;;
77146;SDS011;66121;52.584;9.694;2023-04-25T03:01:44;14.97;;;4.70;;
77146;SDS011;66121;52.584;9.694;2023-04-25T03:04:10;15.98;;;4.43;;
77146;SDS011;66121;52.584;9.694;2023-04-25T03:06:35;14.35;;;3.90;;
77146;SDS011;66121;52.584;9.694;2023-04-25T03:09:00;11.40;;;4.23;;
77146;SDS011;66121;52.584;9.694;2023-04-25T03:11:26;15.67;;;4.43;;
77146;SDS011;66121;52.584;9.694;2023-04-25T03:13:51;18.57;;;4.47;;
77146;SDS011;66121;52.584;9.694;2023-04-25T03:16:16;13.07;;;4.03;;
77146;SDS011;66121;52.584;9.694;2023-04-25T03:18:42;16.13;;;4.72;;
77146;SDS011;66121;52.584;9.694;2023-04-25T03:21:07;10.50;;;3.70;;
77146;SDS011;66121;52.584;9.694;2023-04-25T03:23:32;17.40;;;4.83;;
77146;SDS011;66121;52.584;9.694;2023-04-25T03:25:57;23.00;;;4.88;;
77146;SDS011;66121;52.584;9.694;2023-04-25T03:28:23;16.50;;;4.63;;
77146;SDS011;66121;52.584;9.694;2023-04-25T03:30:48;20.55;;;4.72;;
77146;SDS011;66121;52.584;9.694;2023-04-25T03:33:14;22.37;;;5.33;;
77146;SDS011;66121;52.584;9.694;2023-04-25T03:35:39;18.63;;;3.80;;
77146;SDS011;66121;52.584;9.694;2023-04-25T03:38:04;16.30;;;4.23;;
77146;SDS011;66121;52.584;9.694;2023-04-25T03:40:30;23.97;;;4.73;;
77146;SDS011;66121;52.584;9.694;2023-04-25T03:42:55;24.17;;;5.13;;
77146;SDS011;66121;52.584;9.694;2023-04-25T03:45:20;15.80;;;4.13;;
77146;SDS011;66121;52.584;9.694;2023-04-25T03:47:46;25.08;;;4.80;;
77146;SDS011;66121;52.584;9.694;2023-04-25T03:50:11;12.77;;;4.10;;
77146;SDS011;66121;52.584;9.694;2023-04-25T03:52:36;16.63;;;3.87;;
77146;SDS011;66121;52.584;9.694;2023-04-25T03:55:02;15.50;;;4.80;;
77146;SDS011;66121;52.584;9.694;2023-04-25T03:57:27;19.75;;;4.88;;
77146;SDS011;66121;52.584;9.694;2023-04-25T03:59:53;18.67;;;4.23;;
77146;SDS011;66121;52.584;9.694;2023-04-25T04:02:18;21.00;;;5.47;;
77146;SDS011;66121;52.584;9.694;2023-04-25T04:04:43;17.75;;;5.03;;
77146;SDS011;66121;52.584;9.694;2023-04-25T04:07:09;17.23;;;4.78;;
77146;SDS011;66121;52.584;9.694;2023-04-25T04:09:35;22.23;;;4.20;;
77146;SDS011;66121;52.584;9.694;2023-04-25T04:12:00;20.20;;;4.40;;
77146;SDS011;66121;52.584;9.694;2023-04-25T04:14:26;22.75;;;5.43;;
77146;SDS011;66121;52.584;9.694;2023-04-25T04:16:52;30.60;;;7.07;;
77146;SDS011;66121;52.584;9.694;2023-04-25T04:19:17;19.27;;;5.80;;
77146;SDS011;66121;52.584;9.694;2023-04-25T04:21:42;24.90;;;5.90;;
77146;SDS011;66121;52.584;9.694;2023-04-25T04:24:08;18.00;;;6.03;;
77146;SDS011;66121;52.584;9.694;2023-04-25T04:26:33;16.30;;;5.17;;
77146;SDS011;66121;52.584;9.694;2023-04-25T04:28:59;21.58;;;5.13;;
77146;SDS011;66121;52.584;9.694;2023-04-25T04:31:25;23.67;;;4.60;;
77146;SDS011;66121;52.584;9.694;2023-04-25T04:33:50;19.40;;;5.32;;
77146;SDS011;66121;52.584;9.694;2023-04-25T04:36:16;16.50;;;4.85;;
77146;SDS011;66121;52.584;9.694;2023-04-25T04:38:44;19.38;;;4.82;;
77146;SDS011;66121;52.584;9.694;2023-04-25T04:41:10;20.50;;;4.10;;
77146;SDS011;66121;52.584;9.694;2023-04-25T04:43:35;18.47;;;5.20;;
77146;SDS011;66121;52.584;9.694;2023-04-25T04:46:01;24.70;;;6.50;;
77146;SDS011;66121;52.584;9.694;2023-04-25T04:48:29;18.67;;;4.97;;
77146;SDS011;66121;52.584;9.694;2023-04-25T04:50:58;15.00;;;4.25;;
77146;SDS011;66121;52.584;9.694;2023-04-25T04:53:23;19.02;;;4.38;;
77146;SDS011;66121;52.584;9.694;2023-04-25T04:55:48;11.15;;;4.78;;
77146;SDS011;66121;52.584;9.694;2023-04-25T04:58:14;17.25;;;4.80;;
77146;SDS011;66121;52.584;9.694;2023-04-25T05:00:40;20.57;;;4.80;;
77146;SDS011;66121;52.584;9.694;2023-04-25T05:03:05;18.53;;;4.30;;
77146;SDS011;66121;52.584;9.694;2023-04-25T05:05:30;16.52;;;5.93;;
77146;SDS011;66121;52.584;9.694;2023-04-25T05:07:56;19.17;;;4.53;;
77146;SDS011;66121;52.584;9.694;2023-04-25T05:10:21;21.23;;;4.63;;
77146;SDS011;66121;52.584;9.694;2023-04-25T05:12:46;19.50;;;4.38;;
77146;SDS011;66121;52.584;9.694;2023-04-25T05:15:12;17.37;;;3.90;;
77146;SDS011;66121;52.584;9.694;2023-04-25T05:17:37;20.00;;;4.28;;
77146;SDS011;66121;52.584;9.694;2023-04-25T05:20:04;15.82;;;3.80;;
77146;SDS011;66121;52.584;9.694;2023-04-25T05:22:30;27.85;;;4.53;;
77146;SDS011;66121;52.584;9.694;2023-04-25T05:24:56;20.17;;;4.38;;
77146;SDS011;66121;52.584;9.694;2023-04-25T05:27:21;19.70;;;4.65;;
77146;SDS011;66121;52.584;9.694;2023-04-25T05:29:46;17.53;;;4.60;;
77146;SDS011;66121;52.584;9.694;2023-04-25T05:32:12;13.87;;;4.23;;
77146;SDS011;66121;52.584;9.694;2023-04-25T05:34:37;19.77;;;4.07;;
77146;SDS011;66121;52.584;9.694;2023-04-25T05:37:02;22.97;;;4.53;;
77146;SDS011;66121;52.584;9.694;2023-04-25T05:39:28;12.57;;;4.00;;
77146;SDS011;66121;52.584;9.694;2023-04-25T05:41:54;16.35;;;4.70;;
77146;SDS011;66121;52.584;9.694;2023-04-25T05:44:19;18.30;;;5.63;;
77146;SDS011;66121;52.584;9.694;2023-04-25T05:46:45;16.33;;;4.13;;
77146;SDS011;66121;52.584;9.694;2023-04-25T05:49:10;17.13;;;5.15;;
77146;SDS011;66121;52.584;9.694;2023-04-25T05:51:35;16.73;;;3.95;;
77146;SDS011;66121;52.584;9.694;2023-04-25T05:54:01;16.13;;;4.10;;
77146;SDS011;66121;52.584;9.694;2023-04-25T05:56:26;22.73;;;5.28;;
77146;SDS011;66121;52.584;9.694;2023-04-25T05:58:51;16.25;;;4.88;;
77146;SDS011;66121;52.584;9.694;2023-04-25T06:01:17;11.68;;;3.55;;
77146;SDS011;66121;52.584;9.694;2023-04-25T06:03:42;15.47;;;4.30;;
77146;SDS011;66121;52.584;9.694;2023-04-25T06:06:08;24.80;;;4.60;;
77146;SDS011;66121;52.584;9.694;2023-04-25T06:08:34;18.88;;;4.93;;
77146;SDS011;66121;52.584;9.694;2023-04-25T06:10:59;14.35;;;3.78;;
77146;SDS011;66121;52.584;9.694;2023-04-25T06:13:25;14.33;;;3.97;;
77146;SDS011;66121;52.584;9.694;2023-04-25T06:15:50;25.00;;;4.80;;
77146;SDS011;66121;52.584;9.694;2023-04-25T06:18:15;14.47;;;4.07;;
77146;SDS011;66121;52.584;9.694;2023-04-25T06:20:41;17.00;;;4.07;;
77146;SDS011;66121;52.584;9.694;2023-04-25T06:23:06;18.20;;;4.00;;
77146;SDS011;66121;52.584;9.694;2023-04-25T06:25:32;23.57;;;4.47;;
77146;SDS011;66121;52.584;9.694;2023-04-25T06:27:57;16.77;;;3.80;;
77146;SDS011;66121;52.584;9.694;2023-04-25T06:30:22;18.30;;;5.37;;
77146;SDS011;66121;52.584;9.694;2023-04-25T06:32:50;16.15;;;3.33;;
77146;SDS011;66121;52.584;9.694;2023-04-25T06:35:16;13.23;;;4.38;;
77146;SDS011;66121;52.584;9.694;2023-04-25T06:37:41;22.13;;;4.80;;
77146;SDS011;66121;52.584;9.694;2023-04-25T06:40:07;14.83;;;4.17;;
77146;SDS011;66121;52.584;9.694;2023-04-25T06:42:32;17.92;;;3.72;;
77146;SDS011;66121;52.584;9.694;2023-04-25T06:44:58;14.53;;;3.77;;
77146;SDS011;66121;52.584;9.694;2023-04-25T06:47:23;9.52;;;3.20;;
77146;SDS011;66121;52.584;9.694;2023-04-25T06:49:49;15.85;;;3.60;;
77146;SDS011;66121;52.584;9.694;2023-04-25T06:52:14;18.48;;;4.57;;
77146;SDS011;66121;52.584;9.694;2023-04-25T06:54:40;10.02;;;2.95;;
77146;SDS011;66121;52.584;9.694;2023-04-25T06:57:05;12.87;;;3.90;;
77146;SDS011;66121;52.584;9.694;2023-04-25T06:59:30;15.13;;;3.17;;
77146;SDS011;66121;52.584;9.694;2023-04-25T07:01:55;16.63;;;4.47;;
77146;SDS011;66121;52.584;9.694;2023-04-25T07:04:21;13.80;;;4.07;;
77146;SDS011;66121;52.584;9.694;2023-04-25T07:06:46;14.23;;;3.50;;
77146;SDS011;66121;52.584;9.694;2023-04-25T07:09:13;14.95;;;3.40;;
77146;SDS011;66121;52.584;9.694;2023-04-25T07:11:38;10.77;;;3.43;;
77146;SDS011;66121;52.584;9.694;2023-04-25T07:14:03;12.10;;;3.23;;
77146;SDS011;66121;52.584;9.694;2023-04-25T07:16:29;14.00;;;3.97;;
77146;SDS011;66121;52.584;9.694;2023-04-25T07:18:54;11.25;;;3.03;;
77146;SDS011;66121;52.584;9.694;2023-04-25T07:21:20;14.88;;;3.67;;
77146;SDS011;66121;52.584;9.694;2023-04-25T07:23:45;17.73;;;4.05;;
77146;SDS011;66121;52.584;9.694;2023-04-25T07:26:11;13.35;;;3.25;;
77146;SDS011;66121;52.584;9.694;2023-04-25T07:28:37;17.90;;;5.10;;
77146;SDS011;66121;52.584;9.694;2023-04-25T07:31:02;13.88;;;2.75;;
77146;SDS011;66121;52.584;9.694;2023-04-25T07:33:27;11.75;;;3.88;;
77146;SDS011;66121;52.584;9.694;2023-04-25T07:35:53;9.48;;;2.60;;
77146;SDS011;66121;52.584;9.694;2023-04-25T07:38:20;14.00;;;2.78;;
77146;SDS011;66121;52.584;9.694;2023-04-25T07:40:47;8.73;;;2.80;;
77146;SDS011;66121;52.584;9.694;2023-04-25T07:43:13;10.27;;;2.72;;
77146;SDS011;66121;52.584;9.694;2023-04-25T07:45:41;13.65;;;2.92;;
77146;SDS011;66121;52.584;9.694;2023-04-25T07:48:07;12.30;;;2.80;;
77146;SDS011;66121;52.584;9.694;2023-04-25T07:50:33;13.98;;;3.03;;
77146;SDS011;66121;52.584;9.694;2023-04-25T07:52:58;11.70;;;2.25;;
77146;SDS011;66121;52.584;9.694;2023-04-25T07:55:23;15.13;;;3.20;;
77146;SDS011;66121;52.584;9.694;2023-04-25T07:57:48;9.97;;;3.07;;
77146;SDS011;66121;52.584;9.694;2023-04-25T08:00:14;9.90;;;2.57;;
77146;SDS011;66121;52.584;9.694;2023-04-25T08:02:40;14.73;;;3.47;;
77146;SDS011;66121;52.584;9.694;2023-04-25T08:05:05;10.15;;;2.53;;
77146;SDS011;66121;52.584;9.694;2023-04-25T08:07:33;12.48;;;2.42;;
77146;SDS011;66121;52.584;9.694;2023-04-25T08:09:58;9.82;;;2.45;;
77146;SDS011;66121;52.584;9.694;2023-04-25T08:12:24;7.73;;;2.27;;
77146;SDS011;66121;52.584;9.694;2023-04-25T08:14:49;11.15;;;2.40;;
77146;SDS011;66121;52.584;9.694;2023-04-25T08:17:15;7.72;;;2.10;;
77146;SDS011;66121;52.584;9.694;2023-04-25T08:19:40;13.05;;;2.30;;
77146;SDS011;66121;52.584;9.694;2023-04-25T08:22:06;5.68;;;2.13;;
77146;SDS011;66121;52.584;9.694;2023-04-25T08:24:31;8.67;;;2.30;;
77146;SDS011;66121;52.584;9.694;2023-04-25T08:26:56;12.93;;;2.97;;
77146;SDS011;66121;52.584;9.694;2023-04-25T08:29:23;8.13;;;2.30;;
77146;SDS011;66121;52.584;9.694;2023-04-25T08:31:50;14.55;;;3.78;;
77146;SDS011;66121;52.584;9.694;2023-04-25T08:34:17;9.18;;;2.80;;
77146;SDS011;66121;52.584;9.694;2023-04-25T08:36:43;8.18;;;2.38;;
77146;SDS011;66121;52.584;9.694;2023-04-25T08:39:08;9.48;;;2.80;;
77146;SDS011;66121;52.584;9.694;2023-04-25T08:41:34;10.73;;;2.60;;
77146;SDS011;66121;52.584;9.694;2023-04-25T08:44:01;9.93;;;2.13;;
77146;SDS011;66121;52.584;9.694;2023-04-25T08:46:28;9.18;;;2.22;;
77146;SDS011;66121;52.584;9.694;2023-04-25T08:48:56;8.65;;;2.17;;
77146;SDS011;66121;52.584;9.694;2023-04-25T08:51:25;8.85;;;2.70;;
77146;SDS011;66121;52.584;9.694;2023-04-25T08:53:56;8.10;;;3.22;;
77146;SDS011;66121;52.584;9.694;2023-04-25T08:56:33;8.60;;;2.45;;
77146;SDS011;66121;52.584;9.694;2023-04-25T08:58:59;11.90;;;2.72;;
77146;SDS011;66121;52.584;9.694;2023-04-25T09:01:27;7.45;;;2.47;;
77146;SDS011;66121;52.584;9.694;2023-04-25T09:03:52;4.28;;;2.20;;
77146;SDS011;66121;52.584;9.694;2023-04-25T09:06:18;6.25;;;2.30;;
77146;SDS011;66121;52.584;9.694;2023-04-25T09:08:44;11.05;;;3.50;;
77146;SDS011;66121;52.584;9.694;2023-04-25T09:11:10;10.25;;;2.78;;
77146;SDS011;66121;52.584;9.694;2023-04-25T09:13:35;6.15;;;2.05;;
77146;SDS011;66121;52.584;9.694;2023-04-25T09:16:00;7.38;;;2.33;;
77146;SDS011;66121;52.584;9.694;2023-04-25T09:18:27;9.00;;;2.10;;
77146;SDS011;66121;52.584;9.694;2023-04-25T09:20:54;8.68;;;2.72;;
77146;SDS011;66121;52.584;9.694;2023-04-25T09:23:21;8.98;;;2.30;;
77146;SDS011;66121;52.584;9.694;2023-04-25T09:25:48;7.82;;;2.50;;
77146;SDS011;66121;52.584;9.694;2023-04-25T09:28:15;7.22;;;1.98;;
77146;SDS011;66121;52.584;9.694;2023-04-25T09:30:41;8.35;;;2.50;;
77146;SDS011;66121;52.584;9.694;2023-04-25T09:33:07;5.75;;;2.08;;
77146;SDS011;66121;52.584;9.694;2023-04-25T09:40:38;10.45;;;1.90;;
77146;SDS011;66121;52.584;9.694;2023-04-25T09:43:08;8.30;;;2.17;;
77146;SDS011;66121;52.584;9.694;2023-04-25T09:45:40;4.57;;;3.00;;
77146;SDS011;66121;52.584;9.694;2023-04-25T09:48:06;6.90;;;2.22;;
77146;SDS011;66121;52.584;9.694;2023-04-25T09:50:32;5.10;;;1.95;;
77146;SDS011;66121;52.584;9.694;2023-04-25T09:53:03;9.93;;;2.30;;
77146;SDS011;66121;52.584;9.694;2023-04-25T09:55:32;5.95;;;2.17;;
77146;SDS011;66121;52.584;9.694;2023-04-25T09:58:02;6.13;;;2.05;;
77146;SDS011;66121;52.584;9.694;2023-04-25T10:00:30;9.07;;;1.90;;
77146;SDS011;66121;52.584;9.694;2023-04-25T10:02:57;9.27;;;2.15;;
77146;SDS011;66121;52.584;9.694;2023-04-25T10:05:28;7.50;;;2.10;;
77146;SDS011;66121;52.584;9.694;2023-04-25T10:07:57;8.65;;;2.10;;
77146;SDS011;66121;52.584;9.694;2023-04-25T10:10:25;10.65;;;2.28;;
77146;SDS011;66121;52.584;9.694;2023-04-25T10:12:53;9.52;;;1.85;;
77146;SDS011;66121;52.584;9.694;2023-04-25T10:15:19;7.30;;;2.33;;
77146;SDS011;66121;52.584;9.694;2023-04-25T10:17:45;4.88;;;1.95;;
77146;SDS011;66121;52.584;9.694;2023-04-25T10:20:11;8.98;;;2.05;;
77146;SDS011;66121;52.584;9.694;2023-04-25T10:22:41;12.93;;;2.35;;
77146;SDS011;66121;52.584;9.694;2023-04-25T10:25:09;8.18;;;2.17;;
77146;SDS011;66121;52.584;9.694;2023-04-25T10:27:35;7.03;;;1.80;;
77146;SDS011;66121;52.584;9.694;2023-04-25T10:30:07;6.50;;;1.98;;
77146;SDS011;66121;52.584;9.694;2023-04-25T10:32:36;5.05;;;2.33;;
77146;SDS011;66121;52.584;9.694;2023-04-25T10:35:18;6.50;;;1.75;;
77146;SDS011;66121;52.584;9.694;2023-04-25T10:40:23;6.55;;;1.95;;
77146;SDS011;66121;52.584;9.694;2023-04-25T10:42:48;7.07;;;1.92;;
77146;SDS011;66121;52.584;9.694;2023-04-25T10:45:13;6.00;;;2.10;;
77146;SDS011;66121;52.584;9.694;2023-04-25T10:47:43;6.68;;;2.15;;
77146;SDS011;66121;52.584;9.694;2023-04-25T10:50:09;8.55;;;2.45;;
77146;SDS011;66121;52.584;9.694;2023-04-25T10:52:36;7.82;;;2.15;;
77146;SDS011;66121;52.584;9.694;2023-04-25T10:55:04;7.15;;;1.67;;
77146;SDS011;66121;52.584;9.694;2023-04-25T10:57:30;3.13;;;1.65;;
77146;SDS011;66121;52.584;9.694;2023-04-25T10:59:59;5.88;;;1.80;;
77146;SDS011;66121;52.584;9.694;2023-04-25T11:10:29;6.57;;;1.92;;
77146;SDS011;66121;52.584;9.694;2023-04-25T11:12:56;4.65;;;2.10;;
77146;SDS011;66121;52.584;9.694;2023-04-25T11:15:22;7.38;;;1.90;;
77146;SDS011;66121;52.584;9.694;2023-04-25T11:17:50;7.70;;;2.05;;
77146;SDS011;66121;52.584;9.694;2023-04-25T11:20:16;7.90;;;1.88;;
77146;SDS011;66121;52.584;9.694;2023-04-25T11:22:42;6.00;;;2.07;;
77146;SDS011;66121;52.584;9.694;2023-04-25T11:25:10;8.07;;;2.03;;
77146;SDS011;66121;52.584;9.694;2023-04-25T11:27:52;7.30;;;2.13;;
77146;SDS011;66121;52.584;9.694;2023-04-25T11:30:19;7.43;;;2.20;;
77146;SDS011;66121;52.584;9.694;2023-04-25T11:32:46;5.55;;;1.70;;
77146;SDS011;66121;52.584;9.694;2023-04-25T11:35:11;5.65;;;1.83;;
77146;SDS011;66121;52.584;9.694;2023-04-25T11:37:40;10.20;;;1.80;;
77146;SDS011;66121;52.584;9.694;2023-04-25T11:40:07;4.88;;;2.22;;
77146;SDS011;66121;52.584;9.694;2023-04-25T11:42:35;6.53;;;2.22;;
77146;SDS011;66121;52.584;9.694;2023-04-25T11:45:02;5.72;;;1.70;;
77146;SDS011;66121;52.584;9.694;2023-04-25T11:47:29;4.20;;;1.63;;
77146;SDS011;66121;52.584;9.694;2023-04-25T11:49:57;3.00;;;1.63;;
77146;SDS011;66121;52.584;9.694;2023-04-25T11:52:23;7.35;;;2.65;;
77146;SDS011;66121;52.584;9.694;2023-04-25T11:54:48;5.82;;;1.98;;
77146;SDS011;66121;52.584;9.694;2023-04-25T11:57:13;3.20;;;1.70;;
77146;SDS011;66121;52.584;9.694;2023-04-25T11:59:39;3.13;;;1.45;;
77146;SDS011;66121;52.584;9.694;2023-04-25T12:02:04;4.18;;;1.42;;
77146;SDS011;66121;52.584;9.694;2023-04-25T12:04:31;5.28;;;1.70;;
77146;SDS011;66121;52.584;9.694;2023-04-25T12:06:57;4.18;;;1.60;;
77146;SDS011;66121;52.584;9.694;2023-04-25T12:09:29;3.17;;;1.60;;
77146;SDS011;66121;52.584;9.694;2023-04-25T12:11:57;7.22;;;1.42;;
77146;SDS011;66121;52.584;9.694;2023-04-25T12:14:24;4.82;;;1.67;;
77146;SDS011;66121;52.584;9.694;2023-04-25T12:16:52;3.25;;;1.67;;
77146;SDS011;66121;52.584;9.694;2023-04-25T12:19:20;7.35;;;1.30;;
77146;SDS011;66121;52.584;9.694;2023-04-25T12:21:46;4.43;;;1.65;;
77146;SDS011;66121;52.584;9.694;2023-04-25T12:24:13;2.92;;;1.20;;
77146;SDS011;66121;52.584;9.694;2023-04-25T12:26:59;4.65;;;1.42;;
77146;SDS011;66121;52.584;9.694;2023-04-25T12:29:30;3.33;;;1.08;;
77146;SDS011;66121;52.584;9.694;2023-04-25T12:31:57;6.00;;;1.17;;
77146;SDS011;66121;52.584;9.694;2023-04-25T12:34:22;5.05;;;1.30;;
77146;SDS011;66121;52.584;9.694;2023-04-25T12:36:49;2.75;;;1.38;;
77146;SDS011;66121;52.584;9.694;2023-04-25T12:39:22;8.93;;;1.65;;
77146;SDS011;66121;52.584;9.694;2023-04-25T12:41:52;4.28;;;1.30;;
77146;SDS011;66121;52.584;9.694;2023-04-25T12:44:18;6.38;;;1.20;;
77146;SDS011;66121;52.584;9.694;2023-04-25T12:46:44;2.35;;;1.35;;
77146;SDS011;66121;52.584;9.694;2023-04-25T12:49:10;6.65;;;2.33;;
77146;SDS011;66121;52.584;9.694;2023-04-25T12:51:36;5.13;;;1.73;;
77146;SDS011;66121;52.584;9.694;2023-04-25T12:54:02;3.97;;;1.40;;
77146;SDS011;66121;52.584;9.694;2023-04-25T12:56:29;5.13;;;1.50;;
77146;SDS011;66121;52.584;9.694;2023-04-25T12:58:55;4.43;;;2.10;;
77146;SDS011;66121;52.584;9.694;2023-04-25T13:01:21;3.95;;;1.50;;
77146;SDS011;66121;52.584;9.694;2023-04-25T13:03:47;4.78;;;1.75;;
77146;SDS011;66121;52.584;9.694;2023-04-25T13:06:13;2.83;;;1.30;;
77146;SDS011;66121;52.584;9.694;2023-04-25T13:08:39;5.13;;;1.45;;
77146;SDS011;66121;52.584;9.694;2023-04-25T13:11:04;3.90;;;1.40;;
77146;SDS011;66121;52.584;9.694;2023-04-25T13:13:30;3.38;;;1.63;;
77146;SDS011;66121;52.584;9.694;2023-04-25T13:15:56;7.57;;;1.90;;
77146;SDS011;66121;52.584;9.694;2023-04-25T13:18:22;6.70;;;1.48;;
77146;SDS011;66121;52.584;9.694;2023-04-25T13:20:51;6.07;;;1.90;;
77146;SDS011;66121;52.584;9.694;2023-04-25T13:23:16;7.43;;;1.80;;
77146;SDS011;66121;52.584;9.694;2023-04-25T13:25:42;4.10;;;1.57;;
77146;SDS011;66121;52.584;9.694;2023-04-25T13:28:07;4.53;;;1.60;;
77146;SDS011;66121;52.584;9.694;2023-04-25T13:30:32;5.40;;;1.93;;
77146;SDS011;66121;52.584;9.694;2023-04-25T13:32:58;4.68;;;1.70;;
77146;SDS011;66121;52.584;9.694;2023-04-25T13:35:28;5.18;;;1.63;;
77146;SDS011;66121;52.584;9.694;2023-04-25T13:37:54;4.45;;;1.70;;
77146;SDS011;66121;52.584;9.694;2023-04-25T13:40:20;7.43;;;1.63;;
77146;SDS011;66121;52.584;9.694;2023-04-25T13:42:46;3.67;;;1.77;;
77146;SDS011;66121;52.584;9.694;2023-04-25T13:45:11;4.43;;;1.30;;
77146;SDS011;66121;52.584;9.694;2023-04-25T13:47:36;4.27;;;1.73;;
77146;SDS011;66121;52.584;9.694;2023-04-25T13:50:02;6.57;;;1.43;;
77146;SDS011;66121;52.584;9.694;2023-04-25T13:52:28;4.28;;;1.50;;
77146;SDS011;66121;52.584;9.694;2023-04-25T13:54:54;4.38;;;1.42;;
77146;SDS011;66121;52.584;9.694;2023-04-25T13:57:19;4.38;;;1.70;;
77146;SDS011;66121;52.584;9.694;2023-04-25T13:59:45;7.38;;;1.70;;
77146;SDS011;66121;52.584;9.694;2023-04-25T14:02:11;3.20;;;1.95;;
77146;SDS011;66121;52.584;9.694;2023-04-25T14:04:37;5.00;;;2.13;;
77146;SDS011;66121;52.584;9.694;2023-04-25T14:07:03;5.93;;;2.35;;
77146;SDS011;66121;52.584;9.694;2023-04-25T14:09:29;4.07;;;1.75;;
77146;SDS011;66121;52.584;9.694;2023-04-25T14:11:55;6.25;;;1.80;;
77146;SDS011;66121;52.584;9.694;2023-04-25T14:14:21;6.53;;;1.98;;
77146;SDS011;66121;52.584;9.694;2023-04-25T14:16:47;5.32;;;1.90;;
77146;SDS011;66121;52.584;9.694;2023-04-25T14:19:13;4.80;;;2.08;;
77146;SDS011;66121;52.584;9.694;2023-04-25T14:21:42;3.65;;;1.73;;
77146;SDS011;66121;52.584;9.694;2023-04-25T14:24:08;5.03;;;1.63;;
77146;SDS011;66121;52.584;9.694;2023-04-25T14:26:35;4.40;;;2.08;;
77146;SDS011;66121;52.584;9.694;2023-04-25T14:29:01;2.63;;;1.73;;
77146;SDS011;66121;52.584;9.694;2023-04-25T14:31:29;5.32;;;1.88;;
77146;SDS011;66121;52.584;9.694;2023-04-25T14:33:54;3.58;;;1.67;;
77146;SDS011;66121;52.584;9.694;2023-04-25T14:36:20;5.47;;;1.80;;
77146;SDS011;66121;52.584;9.694;2023-04-25T14:38:46;3.78;;;1.80;;
77146;SDS011;66121;52.584;9.694;2023-04-25T14:41:11;5.70;;;1.90;;
77146;SDS011;66121;52.584;9.694;2023-04-25T14:43:37;5.85;;;1.75;;
77146;SDS011;66121;52.584;9.694;2023-04-25T14:46:02;4.60;;;1.80;;
77146;SDS011;66121;52.584;9.694;2023-04-25T14:48:28;2.88;;;1.58;;
77146;SDS011;66121;52.584;9.694;2023-04-25T14:50:54;3.47;;;1.60;;